Flight Track Log - Related Links

Times and Time Zones

All times are in EDT time to prevent confusion due to time zone crossing. See the N8425N flight status page for this flight to view local times or setup timezone preferences in your user account.

Time Position Orientation Groundspeed Altitude Reporting Facility
EDT Latitude Longitude Course Direction KTS MPH feet Rate Location/Type
Sun 10:06:54 AM 33.7833 -116.3167 320° Northwest 101 116 1,200  Level Southern California TRACON
Sun 10:07:54 AM 33.8000 -116.3333 320° Northwest 112 129 1,800 600 Climbing Southern California TRACON
Sun 10:08:54 AM 33.8167 -116.3667 301° West 117 135 2,400 645 Climbing Southern California TRACON
Sun 10:09:55 AM 33.8500 -116.3833 337° Northwest 117 135 3,100 744 Climbing Southern California TRACON
Sun 10:10:55 AM 33.8667 -116.4000 320° Northwest 114 131 3,900 750 Climbing Southern California TRACON
Sun 10:11:55 AM 33.9000 -116.4167 337° Northwest 123 142 4,600 810 Climbing Southern California TRACON
Sun 10:13:01 AM 33.9333 -116.4333 337° Northwest 109 125 5,600 857 Climbing Southern California TRACON
Sun 10:14:01 AM 33.9667 -116.4500 337° Northwest 106 122 6,400 789 Climbing Southern California TRACON
Sun 10:14:55 AM 33.9833 -116.4500 360° North 102 117 7,100 4,800 Climbing Southern California TRACON
Sun 10:15:11 AM 33.9931 -116.4594 321° Northwest 101 116 12,000 3,818 Climbing Los Angeles Center
Sun 10:16:12 AM 34.0181 -116.4750 333° Northwest 104 120 12,000 -1,967 Level Los Angeles Center
Sun 10:17:13 AM 34.0453 -116.4892 337° Northwest 135 155 8,000 -1,721 Descending Los Angeles Center
Sun 10:18:14 AM 34.0728 -116.5031 337° Northwest 112 129 8,500 590 Climbing Los Angeles Center
Sun 10:19:15 AM 34.0961 -116.5169 334° Northwest 106 122 9,200 836 Climbing Los Angeles Center
Sun 10:20:16 AM 34.1308 -116.5300 343° North 113 130 10,200 738 Climbing Los Angeles Center
Sun 10:21:17 AM 34.1631 -116.5433 341° North 120 138 10,700 295 Climbing Los Angeles Center
Sun 10:22:18 AM 34.2025 -116.5581 343° North 141 162 10,800  Climbing Los Angeles Center
Sun 10:23:19 AM 34.2461 -116.5750 342° North 159 183 10,700 -98 Descending Los Angeles Center
Sun 10:24:21 AM 34.2897 -116.5928 341° North 163 188 10,600 -49 Descending Los Angeles Center
Sun 10:25:22 AM 34.3328 -116.6100 342° North 164 189 10,600  Level Los Angeles Center
Sun 10:26:23 AM 34.3744 -116.6272 341° North 159 183 10,600 -45 Level Los Angeles Center
Sun 10:27:36 AM 34.4264 -116.6483 341° North 164 189 10,500 -45 Descending Los Angeles Center
Sun 10:28:37 AM 34.4764 -116.6675 342° North 157 181 10,500  Level Los Angeles Center
Sun 10:29:38 AM 34.5119 -116.6947 328° Northwest 167 192 10,500  Level Los Angeles Center
Sun 10:30:39 AM 34.5303 -116.7411 296° West 155 178 10,500  Level Los Angeles Center
Sun 10:31:40 AM 34.5492 -116.7881 296° West 154 177 10,500  Level Los Angeles Center
Sun 10:32:41 AM 34.5636 -116.8258 295° West 154 177 10,500  Level Los Angeles Center
Sun 10:33:42 AM 34.5836 -116.8714 298° West 154 177 10,500  Level Los Angeles Center
Sun 10:34:44 AM 34.6042 -116.9239 295° West 148 170 10,500  Level Los Angeles Center
Sun 10:35:45 AM 34.6228 -116.9686 297° West 148 170 10,500  Level Los Angeles Center
Sun 10:36:46 AM 34.6419 -117.0142 297° West 149 171 10,500  Level Los Angeles Center
Sun 10:37:47 AM 34.6625 -117.0611 298° West 153 176 10,500  Level Los Angeles Center
Sun 10:38:48 AM 34.6794 -117.1011 297° West 158 182 10,500  Level Los Angeles Center
Sun 10:39:49 AM 34.7033 -117.1594 296° West 161 185 10,500  Level Los Angeles Center
Sun 10:40:50 AM 34.7269 -117.2183 296° West 161 185 10,500  Level Los Angeles Center
Sun 10:41:51 AM 34.7492 -117.2700 298° West 166 191 10,500  Level Los Angeles Center
Sun 10:42:52 AM 34.7689 -117.3186 296° West 165 190 10,500  Level Los Angeles Center
Sun 10:43:53 AM 34.7886 -117.3667 297° West 161 185 10,500  Level Los Angeles Center
Sun 10:44:54 AM 34.8094 -117.4158 297° West 162 186 10,500  Level Los Angeles Center
Sun 10:45:55 AM 34.8286 -117.4642 296° West 161 185 10,500  Level Los Angeles Center
Sun 10:46:56 AM 34.8489 -117.5122 297° West 159 183 10,500  Level Los Angeles Center
Sun 10:47:58 AM 34.8678 -117.5603 296° West 157 181 10,500  Level Los Angeles Center
Sun 10:48:59 AM 34.8881 -117.6086 297° West 158 182 10,500  Level Los Angeles Center
Sun 10:50:00 AM 34.9072 -117.6561 296° West 156 180 10,500  Level Los Angeles Center
Sun 10:51:01 AM 34.9264 -117.7036 296° West 155 178 10,500  Level Los Angeles Center
Sun 10:52:02 AM 34.9461 -117.7506 297° West 155 178 10,500  Level Los Angeles Center
Sun 10:53:04 AM 34.9647 -117.7967 296° West 153 176 10,500  Level Los Angeles Center
Sun 10:54:17 AM 34.9836 -117.8433 296° West 152 175 10,500  Level Los Angeles Center
Sun 10:55:18 AM 35.0119 -117.9122 297° West 158 182 10,500  Level Los Angeles Center
Sun 10:56:19 AM 35.0328 -117.9617 297° West 162 186 10,500  Level Los Angeles Center
Sun 10:57:21 AM 35.0508 -118.0058 297° West 152 175 10,500  Level Los Angeles Center
Sun 10:58:22 AM 35.0692 -118.0528 296° West 151 174 10,500  Level Los Angeles Center
Sun 10:59:23 AM 35.0878 -118.0981 297° West 151 174 10,500  Level Los Angeles Center
Sun 11:00:25 AM 35.1058 -118.1433 296° West 149 171 10,500  Level Los Angeles Center
Sun 11:01:26 AM 35.1261 -118.1933 296° West 160 184 10,500 49 Level Los Angeles Center
Sun 11:02:27 AM 35.1456 -118.2417 296° West 160 184 10,600 49 Climbing Los Angeles Center
Sun 11:03:29 AM 35.1633 -118.2869 296° West 151 174 10,600 -49 Level Los Angeles Center
Sun 11:04:30 AM 35.1869 -118.3450 296° West 159 183 10,500 195 Descending Los Angeles Center
Sun 11:05:32 AM 35.2053 -118.3900 297° West 149 171 11,000 439 Climbing Los Angeles Center
Sun 11:06:33 AM 35.2228 -118.4333 296° West 145 167 11,400 492 Climbing Los Angeles Center
Sun 11:07:34 AM 35.2389 -118.4758 295° West 140 161 12,000 537 Climbing Los Angeles Center
Sun 11:08:36 AM 35.2581 -118.5203 298° West 143 165 12,500 244 Climbing Los Angeles Center
Sun 11:09:37 AM 35.2783 -118.5697 297° West 159 183 12,500  Level Los Angeles Center
Sun 11:10:39 AM 35.2983 -118.6206 296° West 166 191 12,500  Level Los Angeles Center
Sun 11:11:40 AM 35.3175 -118.6694 296° West 162 186 12,500  Level Los Angeles Center
Sun 11:12:42 AM 35.3375 -118.7197 296° West 164 189 12,500  Level Los Angeles Center
Sun 11:13:44 AM 35.3725 -118.7714 310° West 169 194 12,500  Level Los Angeles Center
Sun 11:14:45 AM 35.4164 -118.7964 335° Northwest 175 201 12,500  Level Los Angeles Center
Sun 11:15:47 AM 35.4567 -118.8261 329° Northwest 171 197 12,500  Level Los Angeles Center
Sun 11:16:48 AM 35.5017 -118.8544 333° Northwest 178 205 12,500  Level Los Angeles Center
Sun 11:17:50 AM 35.5431 -118.8836 330° Northwest 175 201 12,500  Level Los Angeles Center
Sun 11:18:51 AM 35.5842 -118.9119 331° Northwest 171 197 12,500  Level Los Angeles Center
Sun 11:19:53 AM 35.6261 -118.9414 330° Northwest 173 199 12,500  Level Los Angeles Center
Sun 11:20:56 AM 35.6753 -118.9758 330° Northwest 173 199 12,500  Level Oakland Center
Sun 11:21:57 AM 35.7172 -119.0047 331° Northwest 173 199 12,500  Level Oakland Center
Sun 11:22:58 AM 35.7600 -119.0347 330° Northwest 174 200 12,500  Level Oakland Center
Sun 11:23:59 AM 35.8039 -119.0647 331° Northwest 178 205 12,500  Level Oakland Center
Sun 11:25:00 AM 35.8464 -119.0942 331° Northwest 178 205 12,500  Level Oakland Center
Sun 11:26:01 AM 35.8886 -119.1231 331° Northwest 176 203 12,500  Level Oakland Center
Sun 11:27:02 AM 35.9306 -119.1528 330° Northwest 176 203 12,500  Level Oakland Center
Sun 11:28:03 AM 35.9736 -119.1828 331° Northwest 177 204 12,500  Level Oakland Center
Sun 11:29:03 AM 36.0142 -119.2092 332° Northwest 168 193 12,500  Level Oakland Center
Sun 11:30:04 AM 36.0561 -119.2381 331° Northwest 172 198 12,500  Level Oakland Center
Sun 11:31:05 AM 36.0975 -119.2669 331° Northwest 172 198 12,500  Level Oakland Center
Sun 11:32:06 AM 36.1472 -119.3006 331° Northwest 172 198 12,500  Level Oakland Center
Sun 11:33:07 AM 36.1883 -119.3300 330° Northwest 171 197 12,500  Level Oakland Center
Sun 11:34:08 AM 36.2297 -119.3592 330° Northwest 172 198 12,500  Level Oakland Center
Sun 11:35:09 AM 36.2708 -119.3892 330° Northwest 172 198 12,500  Level Oakland Center
Sun 11:36:10 AM 36.3139 -119.4164 333° Northwest 173 199 12,500  Level Oakland Center
Sun 11:37:11 AM 36.3556 -119.4461 330° Northwest 175 201 12,500  Level Oakland Center
Sun 11:38:12 AM 36.3969 -119.4753 330° Northwest 172 198 12,500  Level Oakland Center
Sun 11:39:13 AM 36.4386 -119.5053 330° Northwest 174 200 12,500  Level Oakland Center
Sun 11:40:14 AM 36.4806 -119.5342 331° Northwest 172 198 12,500  Level Oakland Center
Sun 11:41:15 AM 36.5239 -119.5650 330° Northwest 176 203 12,500  Level Oakland Center
Sun 11:42:16 AM 36.5667 -119.5956 330° Northwest 177 204 12,500  Level Oakland Center
Sun 11:43:17 AM 36.6178 -119.6325 330° Northwest 176 203 12,500  Level Oakland Center
Sun 11:44:18 AM 36.6606 -119.6625 331° Northwest 176 203 12,500  Level Oakland Center
Sun 11:45:19 AM 36.7033 -119.6936 330° Northwest 178 205 12,500  Level Oakland Center
Sun 11:46:20 AM 36.7469 -119.7250 330° Northwest 180 207 12,500  Level Oakland Center
Sun 11:47:21 AM 36.7892 -119.7536 332° Northwest 174 200 12,500  Level Oakland Center
Sun 11:48:22 AM 36.8328 -119.7861 329° Northwest 181 208 12,500  Level Oakland Center
Sun 11:49:23 AM 36.8758 -119.8181 329° Northwest 180 207 12,500  Level Oakland Center
Sun 11:50:24 AM 36.9189 -119.8489 330° Northwest 180 207 12,500  Level Oakland Center
Sun 11:51:25 AM 36.9619 -119.8800 330° Northwest 178 205 12,500  Level Oakland Center
Sun 11:52:26 AM 37.0050 -119.9108 330° Northwest 177 204 12,500  Level Oakland Center
Sun 11:53:27 AM 37.0447 -119.9458 325° Northwest 174 200 12,500  Level Oakland Center
Sun 11:54:28 AM 37.0847 -119.9939 316° Northwest 173 199 12,500  Level Oakland Center
Sun 11:55:29 AM 37.1167 -120.0283 319° Northwest 174 200 12,500  Level Oakland Center
Sun 11:56:30 AM 37.1589 -120.0769 317° Northwest 171 197 12,500  Level Oakland Center
Sun 11:57:31 AM 37.1961 -120.1178 319° Northwest 176 203 12,500  Level Oakland Center
Sun 11:58:33 AM 37.2328 -120.1586 318° Northwest 176 203 12,500  Level Oakland Center
Sun 11:59:34 AM 37.2681 -120.2000 317° Northwest 172 198 12,500  Level Oakland Center
Sun 12:00:35 PM 37.3036 -120.2422 317° Northwest 172 198 12,500  Level Oakland Center
Sun 12:01:36 PM 37.3406 -120.2811 320° Northwest 174 200 12,500  Level Oakland Center
Sun 12:02:37 PM 37.3781 -120.3228 319° Northwest 179 206 12,500  Level Oakland Center
Sun 12:03:38 PM 37.4150 -120.3650 318° Northwest 177 204 12,500  Level Oakland Center
Sun 12:04:12 PM 37.4333 -120.3833 322° Northwest 178 205 12,500  Level Northern Cal TRACON
Sun 12:05:18 PM 37.4833 -120.4333 322° Northwest 177 204 12,500  Level Northern Cal TRACON
Sun 12:06:18 PM 37.5167 -120.4833 310° West 177 204 12,500  Level Northern Cal TRACON
Sun 12:07:18 PM 37.5500 -120.5167 322° Northwest 176 203 12,500  Level Northern Cal TRACON
Sun 12:08:12 PM 37.5833 -120.5500 322° Northwest 178 205 12,500  Level Northern Cal TRACON
Sun 12:09:12 PM 37.6167 -120.6000 310° West 181 208 12,500  Level Northern Cal TRACON
Sun 12:09:45 PM 37.6433 -120.6228 326° Northwest 179 206 12,500  Level Oakland Center
Sun 12:10:12 PM 37.6667 -120.6500 317° Northwest 178 205 12,500  Level Northern Cal TRACON
Sun 12:11:12 PM 37.7000 -120.6833 322° Northwest 180 207 12,500  Level Northern Cal TRACON
Sun 12:12:06 PM 37.7333 -120.7167 322° Northwest 180 207 12,500  Level Northern Cal TRACON
Sun 12:13:06 PM 37.7667 -120.7667 310° West 178 205 12,500  Level Northern Cal TRACON
Sun 12:14:00 PM 37.8000 -120.8000 322° Northwest 177 204 12,500  Level Northern Cal TRACON
Sun 12:15:00 PM 37.8333 -120.8500 310° West 179 206 12,500  Level Northern Cal TRACON
Sun 12:16:00 PM 37.8667 -120.8833 322° Northwest 181 208 12,500  Level Northern Cal TRACON
Sun 12:16:53 PM 37.9017 -120.9169 323° Northwest 179 206 12,500 -158 Level Oakland Center
Sun 12:17:54 PM 37.9397 -120.9614 317° Northwest 184 212 12,200 -393 Descending Oakland Center
Sun 12:18:55 PM 37.9808 -121.0092 318° Northwest 197 227 11,700 -492 Descending Oakland Center
Sun 12:19:56 PM 38.0244 -121.0600 317° Northwest 211 243 11,200 -541 Descending Oakland Center
Sun 12:20:57 PM 38.0658 -121.1086 317° Northwest 206 237 10,600 -532 Descending Oakland Center
Sun 12:22:00 PM 38.1167 -121.1667 318° Northwest 203 234 10,100 -293 Descending Northern Cal TRACON
Sun 12:23:00 PM 38.1500 -121.2167 310° West 189 217 10,000 -50 Descending Northern Cal TRACON
Sun 12:24:00 PM 38.2000 -121.2667 322° Northwest 183 211 10,000  Level Northern Cal TRACON
Sun 12:25:00 PM 38.2333 -121.3000 322° Northwest 181 208 10,000  Level Northern Cal TRACON
Sun 12:26:00 PM 38.2667 -121.3500 310° West 180 207 10,000  Level Northern Cal TRACON
Sun 12:27:00 PM 38.3000 -121.3833 322° Northwest 186 214 10,000  Level Northern Cal TRACON
Sun 12:28:00 PM 38.3500 -121.4333 322° Northwest 187 215 10,000  Level Northern Cal TRACON
Sun 12:29:00 PM 38.3833 -121.4833 310° West 187 215 10,000  Level Northern Cal TRACON
Sun 12:30:00 PM 38.4167 -121.5167 322° Northwest 189 217 10,000  Level Northern Cal TRACON
Sun 12:31:00 PM 38.4500 -121.5667 310° West 183 211 10,000  Level Northern Cal TRACON
Sun 12:32:00 PM 38.4833 -121.6333 303° West 188 216 10,000  Level Northern Cal TRACON
Sun 12:33:00 PM 38.5167 -121.6833 310° West 193 222 10,000  Level Northern Cal TRACON
Sun 12:34:00 PM 38.5500 -121.7167 322° Northwest 199 229 10,000  Level Northern Cal TRACON
Sun 12:35:00 PM 38.6000 -121.7333 345° North 200 230 10,000  Level Northern Cal TRACON
Sun 12:36:14 PM 38.6606 -121.7575 343° North 196 226 10,000  Level Oakland Center
Sun 12:37:16 PM 38.7142 -121.7736 347° North 197 227 10,000  Level Oakland Center
Sun 12:38:17 PM 38.7781 -121.7889 349° North 195 224 10,000  Level Oakland Center
Sun 12:39:18 PM 38.8294 -121.8058 346° North 190 219 10,000  Level Oakland Center
Sun 12:40:19 PM 38.8822 -121.8214 347° North 194 223 10,000  Level Oakland Center
Sun 12:41:20 PM 38.9364 -121.8403 345° North 199 229 10,000  Level Oakland Center
Sun 12:42:22 PM 38.9908 -121.8586 345° North 201 231 10,000  Level Oakland Center
Sun 12:43:23 PM 39.0439 -121.8767 345° North 197 227 10,000  Level Oakland Center
Sun 12:44:24 PM 39.0961 -121.8925 347° North 194 223 10,000  Level Oakland Center
Sun 12:45:25 PM 39.1481 -121.9100 345° North 192 221 10,000  Level Oakland Center
Sun 12:46:27 PM 39.2008 -121.9269 346° North 195 224 10,000  Level Oakland Center
Sun 12:47:28 PM 39.2550 -121.9475 344° North 201 231 10,000  Level Oakland Center
Sun 12:48:29 PM 39.3075 -121.9647 346° North 196 226 10,000  Level Oakland Center
Sun 12:49:30 PM 39.3606 -121.9817 346° North 195 224 10,000  Level Oakland Center
Sun 12:50:31 PM 39.4233 -122.0039 345° North 195 224 10,000  Level Oakland Center
Sun 12:51:33 PM 39.4753 -122.0206 346° North 194 223 10,000  Level Oakland Center
Sun 12:52:34 PM 39.5242 -122.0381 345° North 196 226 10,000  Level Oakland Center
Sun 12:53:35 PM 39.5772 -122.0550 346° North 197 227 10,000  Level Oakland Center
Sun 12:54:36 PM 39.6311 -122.0744 344° North 202 232 10,000  Level Oakland Center
Sun 12:55:38 PM 39.6844 -122.0919 346° North 199 229 10,000  Level Oakland Center
Sun 12:56:39 PM 39.7483 -122.1142 345° North 198 228 10,000 246 Level Oakland Center
Sun 12:57:40 PM 39.7997 -122.1325 345° North 194 223 10,500 492 Climbing Oakland Center
Sun 12:58:41 PM 39.8508 -122.1503 345° North 192 221 11,000 585 Climbing Oakland Center
Sun 12:59:43 PM 39.9003 -122.1675 345° North 185 213 11,700 634 Climbing Oakland Center
Sun 01:00:44 PM 39.9469 -122.1842 345° North 178 205 12,300 639 Climbing Oakland Center
Sun 01:01:45 PM 39.9922 -122.1992 346° North 172 198 13,000 683 Climbing Oakland Center
Sun 01:02:47 PM 40.0381 -122.2156 345° North 173 199 13,700 537 Climbing Oakland Center
Sun 01:03:48 PM 40.0847 -122.2253 351° North 177 204 14,100 197 Climbing Oakland Center
Sun 01:04:49 PM 40.1358 -122.1964 23° Northeast 172 198 14,100  Level Oakland Center
Sun 01:05:50 PM 40.1786 -122.1689 26° Northeast 175 201 14,100  Level Oakland Center
Sun 01:06:52 PM 40.2264 -122.1525 15° North 179 206 14,100  Level Oakland Center
Sun 01:07:53 PM 40.2764 -122.1425 North 183 211 14,100  Level Oakland Center
Sun 01:08:54 PM 40.3283 -122.1533 351° North 189 217 14,100  Level Oakland Center
Sun 01:09:56 PM 40.3783 -122.1728 343° North 187 215 14,100 -49 Level Oakland Center
Sun 01:10:57 PM 40.4289 -122.1936 343° North 188 216 14,000  Descending Oakland Center
Sun 01:11:58 PM 40.4825 -122.2347 330° Northwest 189 217 14,100 49 Climbing Oakland Center
Sun 01:12:59 PM 40.5211 -122.2753 321° Northwest 181 208 14,100 -49 Level Oakland Center
Sun 01:14:01 PM 40.5531 -122.3200 313° West 171 197 14,000  Descending Oakland Center
Sun 01:15:02 PM 40.5792 -122.3708 304° West 169 194 14,100 49 Climbing Oakland Center
Sun 01:16:03 PM 40.6083 -122.4192 308° West 170 196 14,100  Level Oakland Center
Sun 01:17:05 PM 40.6386 -122.4681 309° West 172 198 14,100  Level Oakland Center
Sun 01:18:06 PM 40.6750 -122.5136 316° Northwest 183 211 14,100  Level Oakland Center
Sun 01:19:07 PM 40.7211 -122.5419 335° Northwest 183 211 14,100 -148 Level Oakland Center
Sun 01:20:08 PM 40.7769 -122.5825 331° Northwest 189 217 13,800 -390 Descending Oakland Center
Sun 01:21:10 PM 40.8308 -122.5894 354° North 201 231 13,300 -488 Descending Oakland Center
Sun 01:22:11 PM 40.8864 -122.6058 347° North 203 234 12,800 -393 Descending Oakland Center
Sun 01:23:12 PM 40.9394 -122.6236 346° North 198 228 12,500 -146 Descending Oakland Center
Sun 01:24:14 PM 40.9894 -122.6389 347° North 188 216 12,500  Level Oakland Center
Sun 01:25:15 PM 41.0383 -122.6314 North 176 203 12,500  Level Oakland Center
Sun 01:26:16 PM 41.0861 -122.6433 349° North 175 201 12,500  Level Oakland Center
Sun 01:27:00 PM 41.1258 -122.6442 359° North 179 206 12,500  Level Seattle Center
Sun 01:28:01 PM 41.1742 -122.6461 358° North 175 201 12,500  Level Seattle Center
Sun 01:29:02 PM 41.2250 -122.6475 359° North 181 208 12,500  Level Seattle Center
Sun 01:30:02 PM 41.2761 -122.6483 359° North 185 213 12,500  Level Seattle Center
Sun 01:31:03 PM 41.3250 -122.6508 358° North 176 203 12,500  Level Seattle Center
Sun 01:32:04 PM 41.3717 -122.6539 357° North 170 196 12,500  Level Seattle Center
Sun 01:33:05 PM 41.4192 -122.6522 North 174 200 12,500  Level Seattle Center
Sun 01:34:06 PM 41.4686 -122.6522 360° North 178 205 12,500  Level Seattle Center
Sun 01:35:07 PM 41.5192 -122.6533 359° North 180 207 12,500  Level Seattle Center
Sun 01:36:08 PM 41.5664 -122.6547 359° North 173 199 12,500  Level Seattle Center
Sun 01:37:09 PM 41.6242 -122.6572 358° North 169 194 12,500  Level Seattle Center
Sun 01:38:10 PM 41.6706 -122.6578 359° North 170 196 12,500  Level Seattle Center
Sun 01:39:11 PM 41.7186 -122.6586 359° North 171 197 12,500  Level Seattle Center
Sun 01:40:12 PM 41.7664 -122.6603 359° North 171 197 12,500  Level Seattle Center
Sun 01:41:13 PM 41.8139 -122.6622 358° North 171 197 12,500  Level Seattle Center
Sun 01:42:14 PM 41.8633 -122.6625 360° North 174 200 12,500  Level Seattle Center
Sun 01:43:14 PM 41.9133 -122.6644 358° North 179 206 12,500  Level Seattle Center
Sun 01:44:15 PM 41.9600 -122.6664 358° North 170 196 12,500  Level Seattle Center
Sun 01:45:16 PM 42.0103 -122.6689 358° North 174 200 12,500  Level Seattle Center
Sun 01:46:17 PM 42.0578 -122.6697 359° North 175 201 12,500  Level Seattle Center
Sun 01:47:18 PM 42.1056 -122.6711 359° North 170 196 12,500  Level Seattle Center
Sun 01:48:19 PM 42.1531 -122.6731 358° North 172 198 12,500  Level Seattle Center
Sun 01:49:20 PM 42.2008 -122.6739 359° North 171 197 12,500  Level Seattle Center
Sun 01:50:21 PM 42.2481 -122.6761 358° North 170 196 12,500  Level Seattle Center
Sun 01:51:22 PM 42.2969 -122.6761 360° North 172 198 12,500  Level Seattle Center
Sun 01:52:23 PM 42.3464 -122.6797 357° North 177 204 12,500  Level Seattle Center
Sun 01:53:24 PM 42.3958 -122.6814 359° North 176 203 12,500  Level Seattle Center
Sun 01:54:25 PM 42.4422 -122.6828 359° North 167 192 12,500  Level Seattle Center
Sun 01:55:25 PM 42.4956 -122.6842 359° North 160 184 12,500  Level Seattle Center
Sun 01:56:26 PM 42.5439 -122.6867 358° North 175 201 12,500  Level Seattle Center
Sun 01:57:27 PM 42.5914 -122.6875 359° North 172 198 12,500  Level Seattle Center
Sun 01:58:28 PM 42.6386 -122.6889 359° North 170 196 12,500  Level Seattle Center
Sun 01:59:29 PM 42.6861 -122.6894 360° North 171 197 12,500  Level Seattle Center
Sun 02:00:30 PM 42.7333 -122.6931 357° North 172 198 12,500  Level Seattle Center
Sun 02:01:31 PM 42.7819 -122.6928 360° North 177 204 12,500  Level Seattle Center
Sun 02:02:32 PM 42.8325 -122.6953 358° North 181 208 12,500  Level Seattle Center
Sun 02:03:33 PM 42.8856 -122.6961 359° North 195 224 12,500  Level Seattle Center
Sun 02:04:34 PM 42.9392 -122.6986 358° North 195 224 12,500  Level Seattle Center
Sun 02:05:35 PM 42.9897 -122.7006 358° North 183 211 12,500  Level Seattle Center
Sun 02:06:36 PM 43.0389 -122.6994 North 180 207 12,500  Level Seattle Center
Sun 02:07:37 PM 43.0981 -122.7019 358° North 176 203 12,500  Level Seattle Center
Sun 02:08:38 PM 43.1450 -122.7047 358° North 171 197 12,500  Level Seattle Center
Sun 02:09:39 PM 43.1931 -122.7042 360° North 171 197 12,500  Level Seattle Center
Sun 02:10:40 PM 43.2414 -122.7058 359° North 173 199 12,500  Level Seattle Center
Sun 02:11:41 PM 43.2908 -122.7075 359° North 177 204 12,500  Level Seattle Center
Sun 02:12:42 PM 43.3406 -122.7097 358° North 178 205 12,500  Level Seattle Center
Sun 02:13:43 PM 43.3917 -122.7108 359° North 182 209 12,500  Level Seattle Center
Sun 02:14:44 PM 43.4419 -122.7122 359° North 183 211 12,500  Level Seattle Center
Sun 02:15:45 PM 43.4928 -122.7125 360° North 182 209 12,500  Level Seattle Center
Sun 02:16:46 PM 43.5419 -122.7150 358° North 180 207 12,500  Level Seattle Center
Sun 02:17:47 PM 43.5928 -122.7156 360° North 182 209 12,500  Level Seattle Center
Sun 02:18:48 PM 43.6444 -122.7181 358° North 184 212 12,500  Level Seattle Center
Sun 02:19:49 PM 43.7050 -122.7189 359° North 182 209 12,500  Level Seattle Center
Sun 02:20:50 PM 43.7558 -122.7219 358° North 183 211 12,500  Level Seattle Center
Sun 02:21:51 PM 43.8044 -122.7231 359° North 177 204 12,500  Level Seattle Center
Sun 02:22:52 PM 43.8528 -122.7242 359° North 174 200 12,500  Level Seattle Center
Sun 02:23:53 PM 43.8981 -122.7250 359° North 165 190 12,500  Level Seattle Center
Sun 02:24:55 PM 43.9461 -122.7281 357° North 172 198 12,500  Level Seattle Center
Sun 02:25:56 PM 43.9936 -122.7289 359° North 171 197 12,500  Level Seattle Center
Sun 02:26:57 PM 44.0411 -122.7300 359° North 170 196 12,500  Level Seattle Center
Sun 02:27:58 PM 44.0886 -122.7325 358° North 170 196 12,500  Level Seattle Center
Sun 02:28:59 PM 44.1361 -122.7339 359° North 170 196 12,500  Level Seattle Center
Sun 02:30:00 PM 44.1875 -122.7347 359° North 169 194 12,500  Level Seattle Center
Sun 02:31:01 PM 44.2386 -122.7367 358° North 167 192 12,500  Level Seattle Center
Sun 02:32:02 PM 44.2853 -122.7386 358° North 168 193 12,500 -98 Level Seattle Center
Sun 02:33:03 PM 44.3322 -122.7400 359° North 168 193 12,300 -295 Descending Seattle Center
Sun 02:34:04 PM 44.3778 -122.7411 359° North 177 204 11,900 -443 Descending Seattle Center
Sun 02:35:05 PM 44.4297 -122.7428 359° North 184 212 11,400 -541 Descending Seattle Center
Sun 02:36:06 PM 44.4831 -122.7439 359° North 192 221 10,800 -590 Descending Seattle Center
Sun 02:37:07 PM 44.5456 -122.7472 358° North 190 219 10,200 -488 Descending Seattle Center
Sun 02:38:09 PM 44.5981 -122.7481 359° North 189 217 9,800 -390 Descending Seattle Center
Sun 02:39:10 PM 44.6494 -122.7497 359° North 187 215 9,400 -443 Descending Seattle Center
Sun 02:40:11 PM 44.7028 -122.7514 359° North 190 219 8,900 -541 Descending Seattle Center
Sun 02:41:12 PM 44.7547 -122.7533 358° North 190 219 8,300 -590 Descending Seattle Center
Sun 02:42:13 PM 44.8056 -122.7556 358° North 185 213 7,700 -590 Descending Seattle Center
Sun 02:43:14 PM 44.8581 -122.7581 358° North 187 215 7,100 -541 Descending Seattle Center
Sun 02:44:15 PM 44.9089 -122.7569 North 186 214 6,600 -344 Descending Seattle Center
Sun 02:45:16 PM 44.9550 -122.7694 349° North 174 200 6,400 -197 Descending Seattle Center

Login

Don't have an account? Register now (free) for customized features, flight alerts, and more!